createdAt,value
2023-01-10T00:02:34.254Z,100963.44
2023-01-10T00:05:21.753Z,100974.06
2023-01-10T00:08:08.131Z,100974.28
2023-01-10T00:10:53.895Z,100969.88
2023-01-10T00:13:38.977Z,100976.94
2023-01-10T00:16:25.200Z,100979.78
2023-01-10T00:19:12.654Z,100990.09
2023-01-10T00:22:12.443Z,100997.91
2023-01-10T00:24:58.697Z,101006.63
2023-01-10T00:27:46.722Z,101017.09
2023-01-10T00:30:35.130Z,101021.50
2023-01-10T00:33:20.848Z,101026.03
2023-01-10T00:36:07.552Z,101026.88
2023-01-10T00:38:54.883Z,101023.84
2023-01-10T00:41:58.196Z,101035.13
2023-01-10T00:44:46.728Z,101037.97
2023-01-10T00:47:32.635Z,101056.44
2023-01-10T00:50:18.580Z,101055.59
2023-01-10T00:53:04.452Z,101055.91
2023-01-10T00:55:51.381Z,101064.56
2023-01-10T00:58:37.189Z,101071.72
2023-01-10T01:01:23.127Z,101082.88
2023-01-10T01:04:08.966Z,101082.78
2023-01-10T01:06:54.932Z,101088.03
2023-01-10T01:10:00.655Z,101096.56
2023-01-10T01:12:47.713Z,101097.19
2023-01-10T01:15:34.544Z,101115.63
2023-01-10T01:18:21.694Z,101136.59
2023-01-10T01:21:08.325Z,101139.34
2023-01-10T01:23:56.598Z,101147.97
2023-01-10T01:26:42.785Z,101155.81
2023-01-10T01:29:42.402Z,101162.88
2023-01-10T01:32:29.419Z,101175.63
2023-01-10T01:35:15.588Z,101182.69
2023-01-10T01:38:01.585Z,101193.13
2023-01-10T01:40:47.416Z,101196.69
2023-01-10T01:43:53.217Z,101207.13
2023-01-10T01:46:40.600Z,101215.88
2023-01-10T01:49:26.245Z,101223.06
2023-01-10T01:52:12.837Z,101221.38
2023-01-10T01:54:59.260Z,101230.00
2023-01-10T01:57:45.308Z,101233.38
2023-01-10T02:00:31.205Z,101246.66
2023-01-10T02:03:18.983Z,101246.56
2023-01-10T02:06:05.186Z,101257.84
2023-01-10T02:08:52.735Z,101253.41
2023-01-10T02:11:38.421Z,101261.31
2023-01-10T02:14:24.463Z,101267.22
2023-01-10T02:17:10.575Z,101278.91
2023-01-10T02:19:58.621Z,101278.91
2023-01-10T02:23:08.947Z,101290.19
2023-01-10T02:26:19.129Z,101285.88
2023-01-10T02:29:09.825Z,101286.94
2023-01-10T02:32:08.261Z,101297.69
2023-01-10T02:34:57.505Z,101308.88
2023-01-10T02:37:46.304Z,101308.88
2023-01-10T02:40:35.143Z,101315.81
2023-01-10T02:43:21.952Z,101320.25
2023-01-10T02:46:08.630Z,101327.41
2023-01-10T02:48:56.152Z,101331.84
2023-01-10T02:51:41.887Z,101331.84
2023-01-10T02:54:30.509Z,101335.22
2023-01-10T02:57:20.283Z,101342.06
2023-01-10T03:00:09.569Z,101337.13
2023-01-10T03:03:02.806Z,101337.84
2023-01-10T03:05:52.418Z,101344.91
2023-01-10T03:08:38.769Z,101348.59
2023-01-10T03:11:39.928Z,101340.81
2023-01-10T03:14:26.991Z,101349.56
2023-01-10T03:17:12.725Z,101350.50
2023-01-10T03:19:59.905Z,101348.94
2023-01-10T03:22:47.282Z,101352.63
2023-01-10T03:25:34.170Z,101359.56
2023-01-10T03:28:21.549Z,101358.81
2023-01-10T03:31:07.965Z,101367.47
2023-01-10T03:33:53.979Z,101372.75
2023-01-10T03:36:41.945Z,101382.53
2023-01-10T03:39:31.908Z,101381.78
2023-01-10T03:42:22.482Z,101388.84
2023-01-10T03:45:08.885Z,101402.88
2023-01-10T03:47:54.609Z,101404.66
2023-01-10T03:50:40.576Z,101408.13
2023-01-10T03:53:26.299Z,101414.25
2023-01-10T03:56:15.173Z,101413.41
2023-01-10T03:59:01.304Z,101421.31
2023-01-10T04:01:47.105Z,101409.81
2023-01-10T04:04:33.167Z,101413.50
2023-01-10T04:07:18.846Z,101416.03
2023-01-10T04:10:04.695Z,101419.63
2023-01-10T04:12:51.939Z,101430.16
2023-01-10T04:15:37.944Z,101427.53
2023-01-10T04:18:23.793Z,101439.03
2023-01-10T04:21:09.751Z,101444.09
2023-01-10T04:23:55.520Z,101438.28
2023-01-10T04:26:41.370Z,101442.59
2023-01-10T04:29:28.573Z,101451.44
2023-01-10T04:32:14.261Z,101448.81
2023-01-10T04:35:00.244Z,101448.81
2023-01-10T04:37:46.341Z,101453.25
2023-01-10T04:40:32.126Z,101447.34
2023-01-10T04:43:17.874Z,101461.34
2023-01-10T04:46:04.993Z,101464.38
2023-01-10T04:48:50.962Z,101462.03
2023-01-10T04:51:36.933Z,101467.69
2023-01-10T04:54:23.115Z,101462.63
2023-01-10T04:57:08.903Z,101453.41
2023-01-10T04:59:54.842Z,101446.75
2023-01-10T05:02:44.195Z,101453.47
2023-01-10T05:05:30.412Z,101446.50
2023-01-10T05:08:16.301Z,101447.91
2023-01-10T05:11:02.203Z,101450.84
2023-01-10T05:13:48.332Z,101451.13
2023-01-10T05:16:35.085Z,101450.47
2023-01-10T05:19:22.125Z,101458.75
2023-01-10T05:22:07.853Z,101457.44
2023-01-10T05:24:54.719Z,101463.16
2023-01-10T05:27:41.783Z,101459.69
2023-01-10T05:30:28.020Z,101455.84
2023-01-10T05:33:14.019Z,101461.28
2023-01-10T05:36:02.907Z,101463.31
2023-01-10T05:38:48.630Z,101473.75
2023-01-10T05:41:34.484Z,101478.28
2023-01-10T05:44:20.145Z,101488.03
2023-01-10T05:47:06.040Z,101490.84
2023-01-10T05:49:51.887Z,101501.56
2023-01-10T05:52:39.180Z,101507.00
2023-01-10T05:55:25.032Z,101524.47
2023-01-10T05:58:11.474Z,101518.63
2023-01-10T06:00:57.914Z,101531.88
2023-01-10T06:03:43.971Z,101549.53
2023-01-10T06:06:29.771Z,101557.69
2023-01-10T06:09:16.888Z,101555.25
2023-01-10T06:12:03.025Z,101565.00
2023-01-10T06:14:49.206Z,101571.34
2023-01-10T06:17:35.179Z,101577.47
2023-01-10T06:20:21.114Z,101587.13
2023-01-10T06:23:06.847Z,101591.72
2023-01-10T06:25:54.128Z,101598.00
2023-01-10T06:28:41.004Z,101588.41
2023-01-10T06:31:26.932Z,101597.16
2023-01-10T06:34:13.446Z,101598.84
2023-01-10T06:36:59.305Z,101605.97
2023-01-10T06:39:46.303Z,101613.09
2023-01-10T06:42:33.690Z,101615.81
2023-01-10T06:45:19.483Z,101629.91
2023-01-10T06:48:05.650Z,101637.69
2023-01-10T06:50:51.796Z,101632.28
2023-01-10T06:53:37.504Z,101643.63
2023-01-10T06:56:23.302Z,101647.03
2023-01-10T06:59:11.166Z,101654.72
2023-01-10T07:01:56.900Z,101667.72
2023-01-10T07:04:43.117Z,101674.50
2023-01-10T07:07:29.203Z,101677.06
2023-01-10T07:10:15.280Z,101680.34
2023-01-10T07:13:01.529Z,101700.28
2023-01-10T07:15:48.740Z,101704.44
2023-01-10T07:18:34.658Z,101713.03
2023-01-10T07:21:20.737Z,101717.25
2023-01-10T07:24:07.524Z,101717.94
2023-01-10T07:26:55.258Z,101733.44
2023-01-10T07:29:41.384Z,101738.63
2023-01-10T07:32:28.425Z,101742.84
2023-01-10T07:35:14.122Z,101747.78
2023-01-10T07:38:00.176Z,101755.44
2023-01-10T07:40:46.022Z,101763.06
2023-01-10T07:43:31.788Z,101769.88
2023-01-10T07:46:17.665Z,101759.16
2023-01-10T07:49:05.777Z,101765.00
2023-01-10T07:51:51.544Z,101758.72
2023-01-10T07:54:37.283Z,101771.78
2023-01-10T07:57:22.937Z,101774.09
2023-01-10T08:00:09.552Z,101775.59
2023-01-10T08:02:55.809Z,101783.22
2023-01-10T08:05:43.368Z,101776.94
2023-01-10T08:08:29.412Z,101783.72
2023-01-10T08:11:15.484Z,101778.22
2023-01-10T08:14:01.365Z,101777.94
2023-01-10T08:16:47.173Z,101773.34
2023-01-10T08:19:32.914Z,101761.75
2023-01-10T08:22:22.982Z,101756.16
2023-01-10T08:25:09.270Z,101747.13
2023-01-10T08:27:55.194Z,101749.56
2023-01-10T08:30:41.186Z,101751.19
2023-01-10T08:33:27.366Z,101752.69
2023-01-10T08:36:17.673Z,101737.56
2023-01-10T08:39:04.873Z,101712.63
2023-01-10T08:41:50.654Z,101687.22
2023-01-10T08:44:37.047Z,101667.72
2023-01-10T08:47:23.035Z,101665.84
2023-01-10T08:50:09.489Z,101642.31
2023-01-10T08:52:55.471Z,101626.31
2023-01-10T08:55:42.750Z,101624.44
2023-01-10T08:58:28.673Z,101614.63
2023-01-10T09:01:14.836Z,101608.41
2023-01-10T09:04:00.694Z,101594.31
2023-01-10T09:06:46.656Z,101592.44
2023-01-10T09:09:32.582Z,101588.66
2023-01-10T09:12:37.336Z,101582.16
2023-01-10T09:15:24.203Z,101577.53
2023-01-10T09:18:11.780Z,101572.72
2023-01-10T09:20:57.600Z,101577.78
2023-01-10T09:23:44.286Z,101571.28
2023-01-10T09:26:30.306Z,101572.00
2023-01-10T09:29:17.604Z,101571.28
2023-01-10T09:32:03.464Z,101570.03
2023-01-10T09:34:49.238Z,101560.16
2023-01-10T09:37:35.064Z,101548.53
2023-01-10T09:40:23.410Z,101552.56
2023-01-10T09:43:11.498Z,101544.53
2023-01-10T09:45:59.717Z,101537.31
2023-01-10T09:48:46.248Z,101518.34
2023-01-10T09:51:35.495Z,101498.63
2023-01-10T09:54:24.610Z,101485.97
2023-01-10T09:57:11.823Z,101480.28
2023-01-10T09:59:57.772Z,101469.50
2023-01-10T10:02:45.294Z,101456.84
2023-01-10T10:05:31.302Z,101434.56
2023-01-10T10:08:17.975Z,101416.53
2023-01-10T10:11:10.218Z,101391.59
2023-01-10T10:13:57.110Z,101358.53
2023-01-10T10:16:45.959Z,101331.09
2023-01-10T10:19:35.176Z,101306.44
2023-01-10T10:22:22.525Z,101265.88
2023-01-10T10:25:10.873Z,101239.63
2023-01-10T10:28:00.970Z,101198.22
2023-01-10T10:30:49.050Z,101151.41
2023-01-10T10:33:41.967Z,101110.97
2023-01-10T10:36:31.591Z,101071.94
2023-01-10T10:39:18.510Z,101048.78
2023-01-10T10:42:04.816Z,101012.16
2023-01-10T10:44:52.410Z,100988.19
2023-01-10T10:47:38.805Z,100977.72
2023-01-10T10:50:25.456Z,100959.59
2023-01-10T10:53:12.725Z,100942.91
2023-01-10T10:55:58.425Z,100919.75
2023-01-10T10:58:45.149Z,100908.72
2023-01-10T11:01:31.157Z,100903.78
2023-01-10T11:04:18.285Z,100890.25
2023-01-10T11:07:04.385Z,100867.94
2023-01-10T11:09:54.971Z,100858.34
2023-01-10T11:12:41.987Z,100851.59
2023-01-10T11:15:40.961Z,100852.09
2023-01-10T11:18:27.703Z,100845.59
2023-01-10T11:21:13.936Z,100849.91
2023-01-10T11:23:59.970Z,100844.13
2023-01-10T11:26:47.004Z,100848.44
2023-01-10T11:29:35.202Z,100850.75
2023-01-10T11:32:21.549Z,100846.06
2023-01-10T11:35:08.008Z,100830.66
2023-01-10T11:38:00.575Z,100827.66
2023-01-10T11:40:54.027Z,100835.34
2023-01-10T11:43:41.673Z,100830.28
2023-01-10T11:46:27.781Z,100821.53
2023-01-10T11:49:19.543Z,100810.34
2023-01-10T11:52:06.355Z,100809.13
2023-01-10T11:54:54.282Z,100797.03
2023-01-10T11:57:40.085Z,100782.00
2023-01-10T12:00:32.786Z,100777.81
2023-01-10T12:03:19.393Z,100754.25
2023-01-10T12:06:06.776Z,100744.19
2023-01-10T12:08:56.039Z,100734.53
2023-01-10T12:11:42.117Z,100724.22
2023-01-10T12:14:27.753Z,100713.38
2023-01-10T12:17:17.208Z,100698.97
2023-01-10T12:20:04.423Z,100683.56
2023-01-10T12:22:51.101Z,100670.81
2023-01-10T12:25:37.609Z,100661.19
2023-01-10T12:28:24.206Z,100647.22
2023-01-10T12:31:11.892Z,100642.63
2023-01-10T12:34:02.134Z,100628.75
2023-01-10T12:36:50.721Z,100630.19
2023-01-10T12:39:37.928Z,100626.44
2023-01-10T12:42:43.088Z,100634.88
2023-01-10T12:45:30.205Z,100630.41
2023-01-10T12:48:18.677Z,100633.06
2023-01-10T12:51:07.226Z,100634.88
2023-01-10T12:53:54.176Z,100629.28
2023-01-10T12:56:40.023Z,100630.69
2023-01-10T12:59:36.948Z,100629.00
2023-01-10T13:02:24.320Z,100629.84
2023-01-10T13:05:14.876Z,100621.94
2023-01-10T13:08:04.583Z,100618.44
2023-01-10T13:10:50.831Z,100618.19
2023-01-10T13:13:37.107Z,100619.28
2023-01-10T13:16:33.997Z,100615.66
2023-01-10T13:19:26.888Z,100616.50
2023-01-10T13:22:13.668Z,100621.22
2023-01-10T13:25:01.746Z,100612.31
2023-01-10T13:27:47.510Z,100617.88
2023-01-10T13:30:34.018Z,100609.94
2023-01-10T13:33:20.736Z,100615.78
2023-01-10T13:36:10.964Z,100610.50
2023-01-10T13:38:57.049Z,100611.56
2023-01-10T13:42:15.277Z,100607.50
2023-01-10T13:45:19.207Z,100613.63
2023-01-10T13:48:32.543Z,100612.94
2023-01-10T13:51:19.644Z,100606.94
2023-01-10T13:54:05.955Z,100616.69
2023-01-10T13:56:52.023Z,100618.50
2023-01-10T14:00:14.491Z,100618.63
2023-01-10T14:03:01.783Z,100619.84
2023-01-10T14:05:48.631Z,100621.91
2023-01-10T14:08:34.374Z,100621.91
2023-01-10T14:11:20.188Z,100621.06
2023-01-10T14:14:05.993Z,100613.66
2023-01-10T14:16:52.134Z,100602.84
2023-01-10T14:19:39.445Z,100603.09
2023-01-10T14:22:30.847Z,100601.56
2023-01-10T14:25:18.634Z,100602.53
2023-01-10T14:28:04.977Z,100595.84
2023-01-10T14:30:55.409Z,100603.06
2023-01-10T14:33:42.854Z,100595.38
2023-01-10T14:36:30.709Z,100595.19
2023-01-10T14:39:16.927Z,100589.22
2023-01-10T14:42:02.954Z,100594.75
2023-01-10T14:44:50.059Z,100594.16
2023-01-10T14:47:38.261Z,100598.84
2023-01-10T14:50:34.764Z,100588.56
2023-01-10T14:53:28.912Z,100594.09
2023-01-10T14:56:19.194Z,100591.59
2023-01-10T14:59:16.751Z,100585.75
2023-01-10T15:02:03.372Z,100584.06
2023-01-10T15:04:51.056Z,100584.56
2023-01-10T15:07:38.152Z,100583.28
2023-01-10T15:10:25.630Z,100582.69
2023-01-10T15:13:13.379Z,100580.31
2023-01-10T15:15:59.613Z,100581.38
2023-01-10T15:18:45.622Z,100576.38
2023-01-10T15:21:31.470Z,100580.22
2023-01-10T15:24:32.119Z,100590.91
2023-01-10T15:27:20.195Z,100584.34
2023-01-10T15:30:08.738Z,100577.28
2023-01-10T15:32:55.312Z,100574.84
2023-01-10T15:35:43.334Z,100573.06
2023-01-10T15:38:30.677Z,100573.44
2023-01-10T15:41:18.054Z,100569.13
2023-01-10T15:44:19.098Z,100571.31
2023-01-10T15:47:06.822Z,100568.22
2023-01-10T15:49:53.497Z,100558.63
2023-01-10T15:52:47.587Z,100564.97
2023-01-10T15:55:37.770Z,100551.88
2023-01-10T15:58:24.872Z,100546.03
2023-01-10T16:01:13.797Z,100547.13
2023-01-10T16:04:01.807Z,100547.13
2023-01-10T16:06:47.611Z,100542.94
2023-01-10T16:09:33.399Z,100538.75
2023-01-10T16:12:44.094Z,100540.31
2023-01-10T16:15:30.939Z,100543.91
2023-01-10T16:18:17.145Z,100534.91
2023-01-10T16:21:04.247Z,100533.22
2023-01-10T16:23:50.525Z,100521.25
2023-01-10T16:26:36.865Z,100528.47
2023-01-10T16:29:22.810Z,100515.28
2023-01-10T16:32:12.263Z,100520.66
2023-01-10T16:34:58.216Z,100520.66
2023-01-10T16:37:45.221Z,100509.28
2023-01-10T16:40:36.448Z,100510.00
2023-01-10T16:43:21.844Z,100508.31
2023-01-10T16:46:07.834Z,100506.53
2023-01-10T16:48:54.831Z,100509.75
2023-01-10T16:51:40.802Z,100504.63
2023-01-10T16:54:28.296Z,100500.41
2023-01-10T16:57:16.814Z,100494.41
2023-01-10T17:00:03.065Z,100485.53
2023-01-10T17:02:49.375Z,100476.81
2023-01-10T17:05:35.616Z,100479.31
2023-01-10T17:08:21.848Z,100473.34
2023-01-10T17:11:11.222Z,100477.91
2023-01-10T17:13:56.971Z,100461.94
2023-01-10T17:16:42.671Z,100459.31
2023-01-10T17:19:28.493Z,100454.88
2023-01-10T17:22:14.163Z,100448.78
2023-01-10T17:24:59.945Z,100446.00
2023-01-10T17:27:47.046Z,100446.00
2023-01-10T17:30:32.762Z,100434.41
2023-01-10T17:33:18.621Z,100432.59
2023-01-10T17:36:04.558Z,100429.97
2023-01-10T17:38:50.294Z,100430.91
2023-01-10T17:41:36.260Z,100436.06
2023-01-10T17:44:23.305Z,100434.41
2023-01-10T17:47:10.089Z,100433.31
2023-01-10T17:49:55.973Z,100422.75
2023-01-10T17:52:41.630Z,100423.94
2023-01-10T17:55:27.657Z,100421.09
2023-01-10T17:58:13.763Z,100424.69
2023-01-10T18:01:01.181Z,100418.31
2023-01-10T18:03:47.470Z,100409.72
2023-01-10T18:06:33.270Z,100414.84
2023-01-10T18:09:18.946Z,100408.59
2023-01-10T18:12:05.097Z,100399.72
2023-01-10T18:14:51.309Z,100399.72
2023-01-10T18:17:38.757Z,100403.34
2023-01-10T18:20:24.859Z,100409.44
2023-01-10T18:23:25.407Z,100407.78
2023-01-10T18:26:12.512Z,100407.63
2023-01-10T18:28:59.560Z,100417.22
2023-01-10T18:31:45.296Z,100409.44
2023-01-10T18:34:32.560Z,100408.59
2023-01-10T18:37:19.010Z,100406.69
2023-01-10T18:40:05.482Z,100403.06
2023-01-10T18:42:53.631Z,100406.53
2023-01-10T18:45:39.570Z,100406.69
2023-01-10T18:48:26.011Z,100408.34
2023-01-10T18:51:14.059Z,100410.97
2023-01-10T18:54:00.158Z,100410.00
2023-01-10T18:56:46.025Z,100399.47
2023-01-10T18:59:31.791Z,100403.19
2023-01-10T19:02:17.829Z,100395.56
2023-01-10T19:05:04.646Z,100392.91
2023-01-10T19:07:52.057Z,100389.69
2023-01-10T19:11:00.340Z,100384.31
2023-01-10T19:13:43.973Z,100375.78
2023-01-10T19:16:32.082Z,100374.13
2023-01-10T19:19:18.289Z,100368.16
2023-01-10T19:22:04.138Z,100356.91
2023-01-10T19:24:51.665Z,100350.22
2023-01-10T19:27:37.748Z,100335.50
2023-01-10T19:30:23.465Z,100346.53
2023-01-10T19:33:09.323Z,100341.78
2023-01-10T19:35:56.007Z,100341.78
2023-01-10T19:38:41.808Z,100341.22
2023-01-10T19:41:29.727Z,100333.94
2023-01-10T19:44:16.375Z,100338.03
2023-01-10T19:47:02.034Z,100328.84
2023-01-10T19:49:47.748Z,100356.28
2023-01-10T19:52:33.525Z,100377.09
2023-01-10T19:55:19.250Z,100387.91
2023-01-10T19:58:06.379Z,100400.47
2023-01-10T20:00:52.124Z,100422.22
2023-01-10T20:03:40.818Z,100428.59
2023-01-10T20:06:27.413Z,100432.78
2023-01-10T20:09:14.422Z,100443.31
2023-01-10T20:12:00.233Z,100445.22
2023-01-10T20:14:47.805Z,100443.44
2023-01-10T20:17:34.222Z,100432.91
2023-01-10T20:20:20.621Z,100423.94
2023-01-10T20:23:07.058Z,100422.72
2023-01-10T20:25:58.155Z,100409.56
2023-01-10T20:28:44.992Z,100409.28
2023-01-10T20:31:32.742Z,100404.75
2023-01-10T20:34:18.829Z,100395.28
2023-01-10T20:37:05.070Z,100403.19
2023-01-10T20:39:50.865Z,100403.31
2023-01-10T20:42:36.662Z,100416.75
2023-01-10T20:45:22.463Z,100427.28
2023-01-10T20:48:10.099Z,100448.81
2023-01-10T20:50:56.029Z,100464.38
2023-01-10T20:53:41.739Z,100481.41
2023-01-10T20:56:28.170Z,100498.41
2023-01-10T20:59:14.263Z,100512.53
2023-01-10T21:02:00.597Z,100539.84
2023-01-10T21:04:50.373Z,100556.34
2023-01-10T21:07:36.464Z,100583.63
2023-01-10T21:10:22.193Z,100587.13
2023-01-10T21:13:08.084Z,100597.78
2023-01-10T21:15:54.741Z,100602.31
2023-01-10T21:18:41.218Z,100622.66
2023-01-10T21:21:28.360Z,100621.72
2023-01-10T21:24:15.656Z,100635.00
2023-01-10T21:27:01.241Z,100664.69
2023-01-10T21:29:47.154Z,100653.31
2023-01-10T21:32:34.001Z,100666.97
2023-01-10T21:35:19.839Z,100654.75
2023-01-10T21:38:06.789Z,100669.94
2023-01-10T21:40:52.623Z,100669.22
2023-01-10T21:43:38.698Z,100689.22
2023-01-10T21:46:24.938Z,100682.28
2023-01-10T21:49:11.204Z,100668.28
2023-01-10T21:51:57.743Z,100672.47
2023-01-10T21:54:45.109Z,100659.28
2023-01-10T21:57:30.874Z,100634.28
2023-01-10T22:00:17.163Z,100617.41
2023-01-10T22:03:03.513Z,100599.22
2023-01-10T22:05:49.489Z,100588.44
2023-01-10T22:08:35.868Z,100571.41
2023-01-10T22:11:23.127Z,100550.34
2023-01-10T22:14:08.858Z,100542.19
2023-01-10T22:16:54.894Z,100524.47
2023-01-10T22:19:41.000Z,100524.47
2023-01-10T22:22:27.045Z,100506.75
2023-01-10T22:25:12.948Z,100482.22
2023-01-10T22:28:00.057Z,100495.25
2023-01-10T22:30:45.713Z,100489.84
2023-01-10T22:33:32.294Z,100487.69
2023-01-10T22:36:18.911Z,100472.13
2023-01-10T22:39:06.515Z,100458.81
2023-01-10T22:41:53.377Z,100452.47
2023-01-10T22:44:40.347Z,100424.06
2023-01-10T22:47:26.073Z,100425.00
2023-01-10T22:50:12.044Z,100410.03
2023-01-10T22:52:57.701Z,100407.16
2023-01-10T22:55:43.509Z,100395.78
2023-01-10T22:58:29.404Z,100392.91
2023-01-10T23:01:17.374Z,100397.91
2023-01-10T23:04:03.469Z,100401.25
2023-01-10T23:06:50.111Z,100391.44
2023-01-10T23:09:36.043Z,100401.84
2023-01-10T23:12:21.925Z,100396.56
2023-01-10T23:15:07.982Z,100395.47
2023-01-10T23:17:55.766Z,100400.63
2023-01-10T23:20:41.566Z,100401.31
2023-01-10T23:23:27.416Z,100394.38
2023-01-10T23:26:13.535Z,100395.81
2023-01-10T23:28:59.603Z,100380.84
2023-01-10T23:31:49.491Z,100367.38
2023-01-10T23:34:37.070Z,100344.38
2023-01-10T23:37:22.849Z,100340.19
2023-01-10T23:40:09.443Z,100342.00
2023-01-10T23:42:55.363Z,100331.19
2023-01-10T23:45:42.434Z,100321.34
2023-01-10T23:48:28.270Z,100311.50
2023-01-10T23:51:15.249Z,100310.41
2023-01-10T23:54:01.333Z,100317.34
2023-01-10T23:56:47.360Z,100306.56
2023-01-10T23:59:33.299Z,100299.94
